Time;durP1;ratioP1;P1;durP2;ratioP2;P2;SDS_P1;SDS_P2;PMS_P1;PMS_P2;Temp;Humidity;BMP_temperature;BMP_pressure;BME280_temperature;BME280_humidity;BME280_pressure;Samples;Min_cycle;Max_cycle;Signal;HPM_P1;HPM_P2
2023/01/24 00:00:59;;;;;;;8.73;5.05;;;3.00;99.90;;;;;;5039673;28;20026;-84
2023/01/24 00:03:25;;;;;;;8.07;5.13;;;2.90;99.90;;;;;;5025767;28;20036;-84
2023/01/24 00:05:50;;;;;;;6.95;4.47;;;2.90;99.90;;;;;;5031777;28;20159;-85
2023/01/24 00:08:24;;;;;;;7.15;4.63;;;2.90;99.90;;;;;;5040171;28;20494;-85
2023/01/24 00:11:03;;;;;;;8.98;5.38;;;2.90;99.90;;;;;;5056396;28;20100;-85
2023/01/24 00:13:30;;;;;;;8.95;5.35;;;2.90;99.90;;;;;;5025260;28;20516;-85
2023/01/24 00:16:11;;;;;;;8.88;4.93;;;2.90;99.90;;;;;;5026127;28;20463;-84
2023/01/24 00:18:37;;;;;;;7.95;4.60;;;3.00;99.90;;;;;;5025839;28;20037;-85
2023/01/24 00:21:11;;;;;;;9.50;6.18;;;2.90;99.90;;;;;;5039262;28;20517;-85
2023/01/24 00:23:40;;;;;;;10.15;6.25;;;3.00;99.90;;;;;;5044059;28;20028;-87
2023/01/24 00:26:07;;;;;;;12.63;7.57;;;3.00;99.90;;;;;;5042392;28;20068;-87
2023/01/24 00:28:33;;;;;;;11.98;6.82;;;3.00;99.90;;;;;;5045618;28;20444;-85
2023/01/24 00:30:59;;;;;;;11.52;7.47;;;3.00;99.90;;;;;;5042894;28;20416;-85
2023/01/24 00:33:25;;;;;;;9.43;6.13;;;3.00;99.90;;;;;;5042073;28;20037;-86
2023/01/24 00:35:51;;;;;;;10.40;6.78;;;3.00;99.90;;;;;;5022998;28;20025;-86
2023/01/24 00:38:18;;;;;;;10.45;6.13;;;3.00;99.90;;;;;;5040112;28;20025;-86
2023/01/24 00:40:44;;;;;;;11.20;7.43;;;3.00;99.90;;;;;;5043007;28;20470;-86
2023/01/24 00:43:09;;;;;;;11.15;7.18;;;3.00;99.90;;;;;;5028831;28;20029;-85
2023/01/24 00:45:39;;;;;;;11.30;6.65;;;3.00;99.90;;;;;;5025879;28;20040;-86
2023/01/24 00:48:07;;;;;;;9.88;6.47;;;3.00;99.90;;;;;;5039820;28;20445;-89
2023/01/24 00:50:33;;;;;;;10.77;6.97;;;3.00;99.90;;;;;;5043533;28;20024;-89
2023/01/24 00:53:00;;;;;;;12.05;7.15;;;3.00;99.90;;;;;;5041420;28;20044;-86
2023/01/24 00:55:27;;;;;;;12.82;7.97;;;3.00;99.90;;;;;;5043009;28;20461;-85
2023/01/24 00:57:53;;;;;;;14.05;7.57;;;3.00;99.90;;;;;;5046887;28;20056;-85
2023/01/24 01:00:19;;;;;;;13.18;8.27;;;3.00;99.90;;;;;;5042716;28;20053;-86
2023/01/24 01:02:45;;;;;;;11.40;7.40;;;3.00;99.90;;;;;;5025659;28;20033;-87
2023/01/24 01:05:11;;;;;;;13.07;7.45;;;2.90;99.90;;;;;;5033158;28;20032;-85
2023/01/24 01:07:36;;;;;;;10.93;6.63;;;3.00;99.90;;;;;;5041547;28;20041;-85
2023/01/24 01:10:03;;;;;;;10.60;6.15;;;2.90;99.90;;;;;;5028689;28;20424;-84
2023/01/24 01:12:29;;;;;;;11.75;7.28;;;2.90;99.90;;;;;;5024163;28;20034;-86
2023/01/24 01:14:54;;;;;;;12.32;7.43;;;2.90;99.90;;;;;;5039836;28;20099;-85
2023/01/24 01:17:20;;;;;;;14.40;9.32;;;2.90;99.90;;;;;;5044672;28;20041;-85
2023/01/24 01:19:50;;;;;;;13.93;7.93;;;2.90;99.90;;;;;;5030694;28;20052;-85
2023/01/24 01:22:16;;;;;;;12.18;7.03;;;2.90;99.90;;;;;;5052613;28;20044;-86
2023/01/24 01:24:42;;;;;;;11.38;6.82;;;2.90;99.90;;;;;;5024792;28;20029;-85
2023/01/24 01:27:09;;;;;;;14.27;8.38;;;2.90;99.90;;;;;;5041499;28;20033;-84
2023/01/24 01:29:35;;;;;;;14.70;8.85;;;2.90;99.90;;;;;;5027999;28;20041;-84
2023/01/24 01:32:01;;;;;;;16.85;10.15;;;2.80;99.90;;;;;;5038380;28;20276;-85
2023/01/24 01:34:27;;;;;;;16.95;10.18;;;2.80;99.90;;;;;;5036865;28;20106;-85
2023/01/24 01:36:53;;;;;;;16.42;9.00;;;2.80;99.90;;;;;;5044261;28;20025;-83
2023/01/24 01:39:19;;;;;;;12.88;8.20;;;2.80;99.90;;;;;;5045489;28;20025;-85
2023/01/24 01:41:44;;;;;;;10.80;6.82;;;2.80;99.90;;;;;;5043390;28;20029;-85
2023/01/24 01:44:37;;;;;;;12.35;7.47;;;2.80;99.90;;;;;;5037073;28;20033;-84
2023/01/24 01:47:10;;;;;;;13.48;7.68;;;2.80;99.90;;;;;;5045453;28;20029;-84
2023/01/24 01:49:38;;;;;;;14.23;8.02;;;2.80;99.90;;;;;;5044105;28;20080;-86
2023/01/24 01:52:06;;;;;;;12.20;8.20;;;2.80;99.90;;;;;;5029767;28;20021;-86
2023/01/24 01:54:39;;;;;;;15.05;9.40;;;2.80;99.90;;;;;;5047774;28;20547;-86
2023/01/24 01:57:40;;;;;;;12.48;8.15;;;2.80;99.90;;;;;;5029116;28;20025;-83
2023/01/24 02:00:12;;;;;;;11.60;6.85;;;2.80;99.90;;;;;;5025917;28;20041;-85
2023/01/24 02:02:40;;;;;;;11.35;6.82;;;2.80;99.90;;;;;;5045513;28;20030;-85
2023/01/24 02:05:07;;;;;;;11.00;6.07;;;2.80;99.90;;;;;;5030452;28;20493;-85
2023/01/24 02:07:40;;;;;;;11.30;6.35;;;2.80;99.90;;;;;;5026008;28;20037;-86
2023/01/24 02:10:07;;;;;;;13.55;8.75;;;2.70;99.90;;;;;;5041553;28;20021;-85
2023/01/24 02:12:38;;;;;;;14.38;8.45;;;2.70;99.90;;;;;;5038051;28;20038;-85
2023/01/24 02:17:52;;;;;;;11.30;7.38;;;2.70;99.90;;;;;;5038334;28;20406;-85
2023/01/24 02:20:37;;;;;;;9.88;6.22;;;2.70;99.90;;;;;;5045255;28;20032;-83
2023/01/24 02:23:28;;;;;;;12.48;6.25;;;2.70;99.90;;;;;;5021181;28;20486;-83
2023/01/24 02:26:13;;;;;;;10.02;5.90;;;2.70;99.90;;;;;;5036148;28;20026;-86
2023/01/24 02:28:45;;;;;;;11.23;6.68;;;2.70;99.90;;;;;;5041088;28;20041;-90
2023/01/24 02:31:11;;;;;;;11.80;7.53;;;2.60;99.90;;;;;;5046260;28;20417;-84
2023/01/24 02:33:36;;;;;;;12.23;6.65;;;2.60;99.90;;;;;;5031939;28;20024;-84
2023/01/24 02:36:22;;;;;;;12.02;7.70;;;2.60;99.90;;;;;;5045891;28;20056;-85
2023/01/24 02:38:54;;;;;;;10.63;5.70;;;2.60;99.90;;;;;;5024969;28;20033;-85
2023/01/24 02:41:27;;;;;;;9.65;5.80;;;2.60;99.90;;;;;;5050130;28;20109;-87
2023/01/24 02:43:56;;;;;;;9.55;5.57;;;2.70;99.90;;;;;;5043278;28;20035;-86
2023/01/24 02:46:22;;;;;;;9.88;6.22;;;2.60;99.90;;;;;;5042619;28;20057;-85
2023/01/24 02:48:50;;;;;;;13.23;7.63;;;2.60;99.90;;;;;;5027996;28;20513;-85
2023/01/24 02:54:00;;;;;;;11.15;7.57;;;2.60;99.90;;;;;;5041733;28;20025;-85
2023/01/24 02:59:09;;;;;;;11.55;6.57;;;2.50;99.90;;;;;;5045070;28;20041;-85
2023/01/24 03:01:36;;;;;;;9.82;5.70;;;2.50;99.90;;;;;;5030935;28;20529;-85
2023/01/24 03:04:02;;;;;;;11.15;6.50;;;2.50;99.90;;;;;;5046902;28;20116;-85
2023/01/24 03:06:28;;;;;;;12.23;8.00;;;2.50;99.90;;;;;;5049239;28;20421;-84
2023/01/24 03:08:54;;;;;;;11.80;7.35;;;2.50;99.90;;;;;;5029995;28;20033;-85
2023/01/24 03:11:29;;;;;;;13.73;8.25;;;2.50;99.90;;;;;;5030649;28;20082;-85
2023/01/24 03:35:55;;;;;;;13.20;8.00;;;2.40;99.90;;;;;;5042691;28;20025;-86
2023/01/24 03:41:13;;;;;;;11.43;7.30;;;2.40;99.90;;;;;;5045250;28;20023;-85
2023/01/24 03:43:41;;;;;;;11.40;7.28;;;2.40;99.90;;;;;;5044850;28;20569;-86
2023/01/24 03:46:08;;;;;;;11.88;7.25;;;2.40;99.90;;;;;;5025482;28;20033;-85
2023/01/24 03:48:52;;;;;;;10.95;6.05;;;2.40;99.90;;;;;;5048218;28;20045;-85
2023/01/24 03:54:08;;;;;;;11.25;6.72;;;2.40;99.90;;;;;;5054109;28;20052;-87
2023/01/24 03:56:57;;;;;;;11.13;7.28;;;2.40;99.90;;;;;;5041424;28;20075;-88
2023/01/24 03:59:23;;;;;;;11.75;7.05;;;2.30;99.90;;;;;;5032676;28;20037;-83
2023/01/24 04:01:49;;;;;;;13.55;7.45;;;2.30;99.90;;;;;;5044422;28;20034;-85
2023/01/24 04:04:23;;;;;;;13.60;7.78;;;2.30;99.90;;;;;;5033004;28;20025;-86
2023/01/24 04:06:49;;;;;;;11.90;7.82;;;2.30;99.90;;;;;;5025278;28;20037;-85
2023/01/24 04:09:15;;;;;;;13.32;9.02;;;2.30;99.90;;;;;;5031449;28;20038;-85
2023/01/24 04:11:42;;;;;;;15.40;9.05;;;2.30;99.90;;;;;;5033440;28;20063;-86
2023/01/24 04:14:12;;;;;;;14.27;8.18;;;2.30;99.90;;;;;;5027334;28;20021;-85
2023/01/24 04:16:50;;;;;;;14.95;10.10;;;2.30;99.90;;;;;;5031620;28;20482;-84
2023/01/24 04:19:20;;;;;;;17.08;10.60;;;2.30;99.90;;;;;;5028878;28;20029;-85
2023/01/24 04:21:46;;;;;;;15.27;9.57;;;2.30;99.90;;;;;;5027341;28;20032;-85
2023/01/24 04:24:11;;;;;;;16.00;10.65;;;2.20;99.90;;;;;;5048854;28;20371;-85
2023/01/24 04:26:41;;;;;;;13.35;8.90;;;2.20;99.90;;;;;;5023775;28;20544;-85
2023/01/24 04:29:10;;;;;;;14.50;8.32;;;2.20;99.90;;;;;;5026327;28;20134;-85
2023/01/24 04:31:35;;;;;;;15.40;9.60;;;2.20;99.90;;;;;;5047468;28;20117;-86
2023/01/24 04:34:17;;;;;;;16.77;9.55;;;2.30;99.90;;;;;;5047587;28;20095;-89
2023/01/24 04:36:42;;;;;;;14.45;9.23;;;2.20;99.90;;;;;;5027785;28;20214;-85
2023/01/24 04:39:08;;;;;;;12.73;8.70;;;2.20;99.90;;;;;;5028493;28;20037;-84
2023/01/24 04:41:47;;;;;;;15.25;9.18;;;2.20;99.90;;;;;;5044354;28;20116;-86
2023/01/24 04:44:14;;;;;;;14.88;9.90;;;2.20;99.90;;;;;;5028019;28;20043;-85
2023/01/24 04:46:39;;;;;;;16.15;9.75;;;2.20;99.90;;;;;;5040421;28;20488;-85
2023/01/24 04:49:05;;;;;;;15.00;9.48;;;2.20;99.90;;;;;;5029935;28;20049;-85
2023/01/24 04:51:43;;;;;;;16.10;9.35;;;2.20;99.90;;;;;;5039462;28;20083;-85
2023/01/24 04:54:14;;;;;;;14.77;9.23;;;2.20;99.90;;;;;;5045685;28;20500;-85
2023/01/24 04:56:39;;;;;;;11.10;7.15;;;2.20;99.90;;;;;;5037283;28;20033;-85
2023/01/24 04:59:06;;;;;;;11.93;7.07;;;2.20;99.90;;;;;;5026453;28;20056;-86
2023/01/24 05:01:32;;;;;;;10.38;6.30;;;2.20;99.90;;;;;;5046037;28;20059;-85
2023/01/24 05:04:04;;;;;;;11.25;6.35;;;2.20;99.90;;;;;;5044041;28;20071;-85
2023/01/24 05:06:31;;;;;;;12.25;6.68;;;2.20;99.90;;;;;;5045428;28;20115;-85
2023/01/24 05:08:58;;;;;;;10.32;6.47;;;2.20;99.90;;;;;;5025598;28;20520;-84
2023/01/24 05:11:31;;;;;;;11.52;7.13;;;2.20;99.90;;;;;;5028763;28;20181;-86
2023/01/24 05:14:00;;;;;;;15.13;9.02;;;2.20;99.90;;;;;;5038968;28;20061;-85
2023/01/24 05:16:26;;;;;;;13.73;9.25;;;2.20;99.90;;;;;;5041600;28;20107;-85
2023/01/24 05:18:52;;;;;;;12.73;7.45;;;2.20;99.90;;;;;;5025833;28;20021;-85
2023/01/24 05:21:19;;;;;;;13.60;8.60;;;2.10;99.90;;;;;;5038390;28;20029;-84
2023/01/24 05:23:52;;;;;;;14.73;8.52;;;2.10;99.90;;;;;;5020791;28;20120;-85
2023/01/24 05:26:21;;;;;;;14.00;8.18;;;2.10;99.90;;;;;;5027056;28;20473;-85
2023/01/24 05:28:52;;;;;;;13.52;8.45;;;2.20;99.90;;;;;;5042400;28;20040;-89
2023/01/24 05:31:18;;;;;;;13.35;7.35;;;2.20;99.90;;;;;;5043759;28;20021;-85
2023/01/24 05:33:44;;;;;;;14.60;8.07;;;2.20;99.90;;;;;;5042144;28;20523;-84
2023/01/24 05:36:19;;;;;;;10.57;6.90;;;2.20;99.90;;;;;;5028707;28;20041;-84
2023/01/24 05:38:46;;;;;;;11.18;7.13;;;2.10;99.90;;;;;;5030472;28;20123;-84
2023/01/24 05:41:18;;;;;;;13.95;8.63;;;2.10;99.90;;;;;;5023129;28;20230;-87
2023/01/24 05:43:45;;;;;;;15.35;9.80;;;2.10;99.90;;;;;;5048315;28;20024;-86
2023/01/24 05:46:17;;;;;;;15.93;8.95;;;2.10;99.90;;;;;;5044149;28;20112;-88
2023/01/24 05:48:50;;;;;;;14.67;9.77;;;2.10;99.90;;;;;;5026500;28;20397;-84
2023/01/24 05:51:19;;;;;;;15.75;9.35;;;2.10;99.90;;;;;;5039584;28;20106;-85
2023/01/24 05:53:45;;;;;;;14.05;8.20;;;2.10;99.90;;;;;;5039537;28;20478;-85
2023/01/24 05:56:17;;;;;;;16.38;10.02;;;2.10;99.90;;;;;;5028921;28;20033;-83
2023/01/24 05:58:47;;;;;;;17.00;10.88;;;2.10;99.90;;;;;;5041235;28;20033;-85
2023/01/24 06:01:20;;;;;;;18.15;10.25;;;2.10;99.90;;;;;;5026540;28;20394;-84
2023/01/24 06:03:48;;;;;;;15.10;8.88;;;2.10;99.90;;;;;;5039739;28;20041;-82
2023/01/24 06:06:18;;;;;;;12.52;7.55;;;2.10;99.90;;;;;;5024945;28;20464;-83
2023/01/24 06:08:45;;;;;;;13.55;7.72;;;2.10;99.90;;;;;;5025901;28;20386;-84
2023/01/24 06:11:17;;;;;;;14.48;8.02;;;2.10;99.90;;;;;;5024033;28;20033;-83
2023/01/24 06:13:45;;;;;;;12.73;7.40;;;2.10;99.90;;;;;;5053897;28;20087;-82
2023/01/24 06:16:17;;;;;;;12.77;7.32;;;2.10;99.90;;;;;;5024272;28;20029;-85
2023/01/24 06:18:43;;;;;;;15.70;9.05;;;2.10;99.90;;;;;;5021657;28;20434;-83
2023/01/24 06:21:36;;;;;;;15.98;8.75;;;2.00;99.90;;;;;;5029323;28;20088;-85
2023/01/24 06:24:03;;;;;;;11.93;7.65;;;2.00;99.90;;;;;;5028345;28;20379;-86
2023/01/24 06:26:41;;;;;;;16.73;10.32;;;2.00;99.90;;;;;;5045715;28;20036;-84
2023/01/24 06:29:09;;;;;;;21.92;13.35;;;2.00;99.90;;;;;;5046148;28;20037;-84
2023/01/24 06:31:57;;;;;;;17.17;11.65;;;2.00;99.90;;;;;;5026618;28;20051;-84
2023/01/24 06:34:41;;;;;;;17.98;10.23;;;2.00;99.90;;;;;;5035603;28;20052;-85
2023/01/24 06:37:25;;;;;;;17.55;10.20;;;2.00;99.90;;;;;;5022167;28;20037;-84
2023/01/24 06:39:52;;;;;;;15.82;10.43;;;2.00;99.90;;;;;;5027849;28;20082;-85
2023/01/24 06:42:19;;;;;;;16.10;9.65;;;2.00;99.90;;;;;;5030334;28;20087;-84
2023/01/24 06:44:46;;;;;;;18.13;10.25;;;2.00;99.90;;;;;;5044257;28;20086;-88
2023/01/24 06:47:12;;;;;;;19.05;11.50;;;2.00;99.90;;;;;;5040335;28;20044;-85
2023/01/24 06:49:38;;;;;;;19.08;10.57;;;2.00;99.90;;;;;;5031717;28;20056;-84
2023/01/24 06:52:04;;;;;;;17.73;10.52;;;2.00;99.90;;;;;;5029130;28;20033;-83
2023/01/24 06:54:30;;;;;;;21.60;12.40;;;2.00;99.90;;;;;;5032258;28;20043;-84
2023/01/24 06:56:56;;;;;;;21.63;13.63;;;2.00;99.90;;;;;;5043791;28;20043;-85
2023/01/24 06:59:22;;;;;;;20.95;11.50;;;2.00;99.90;;;;;;5045164;28;20489;-84
2023/01/24 07:01:49;;;;;;;18.77;11.93;;;2.00;99.90;;;;;;5028092;28;20095;-85
2023/01/24 07:04:15;;;;;;;22.63;13.73;;;2.00;99.90;;;;;;5043159;28;20065;-84
2023/01/24 07:06:41;;;;;;;21.98;13.25;;;2.00;99.90;;;;;;5041515;28;20430;-85
2023/01/24 07:09:07;;;;;;;20.67;13.35;;;2.00;99.90;;;;;;5047662;28;20032;-84
2023/01/24 07:11:34;;;;;;;23.85;14.85;;;2.00;99.90;;;;;;5038900;28;20025;-85
2023/01/24 07:14:00;;;;;;;18.98;11.88;;;2.00;99.90;;;;;;5044730;28;20028;-82
2023/01/24 07:16:25;;;;;;;20.52;13.55;;;2.00;99.90;;;;;;5033197;28;20171;-84
2023/01/24 07:18:51;;;;;;;23.33;15.05;;;2.00;99.90;;;;;;5028499;28;20030;-83
2023/01/24 07:21:18;;;;;;;23.10;14.75;;;2.00;99.90;;;;;;5047714;28;20029;-84
2023/01/24 07:23:45;;;;;;;20.77;12.20;;;2.00;99.90;;;;;;5042294;28;20021;-84
2023/01/24 07:26:11;;;;;;;17.80;10.23;;;2.00;99.90;;;;;;5025491;28;20067;-86
2023/01/24 07:28:38;;;;;;;20.90;12.63;;;2.00;99.90;;;;;;5046465;28;20045;-85
2023/01/24 07:31:04;;;;;;;21.85;13.00;;;2.00;99.90;;;;;;5044551;28;20036;-84
2023/01/24 07:33:30;;;;;;;16.60;10.25;;;2.00;99.90;;;;;;5029351;28;20033;-83
2023/01/24 07:35:55;;;;;;;19.10;10.57;;;2.00;99.90;;;;;;5046906;28;20029;-82
2023/01/24 07:38:21;;;;;;;16.48;9.93;;;2.00;99.90;;;;;;5041628;28;20040;-84
2023/01/24 07:40:47;;;;;;;15.27;9.25;;;2.10;99.90;;;;;;5028072;28;20032;-81
2023/01/24 07:43:13;;;;;;;16.40;10.40;;;2.00;99.90;;;;;;5031581;28;20033;-81
2023/01/24 07:45:39;;;;;;;18.33;11.15;;;2.00;99.90;;;;;;5031321;28;20123;-87
2023/01/24 07:48:06;;;;;;;16.50;10.10;;;2.00;99.90;;;;;;5047616;28;20590;-81
2023/01/24 07:50:33;;;;;;;18.30;11.02;;;2.00;99.90;;;;;;5030173;28;20028;-82
2023/01/24 07:52:59;;;;;;;21.00;13.20;;;2.00;99.90;;;;;;5048798;28;20056;-84
2023/01/24 07:55:26;;;;;;;20.08;12.23;;;2.00;99.90;;;;;;5046516;28;20037;-81
2023/01/24 07:57:57;;;;;;;17.65;10.95;;;2.00;99.90;;;;;;5032664;28;20037;-83
2023/01/24 08:00:22;;;;;;;21.25;12.38;;;2.00;99.90;;;;;;5046399;28;20033;-80
2023/01/24 08:02:49;;;;;;;18.92;12.00;;;2.00;99.90;;;;;;5029999;28;20837;-84
2023/01/24 08:05:15;;;;;;;22.35;12.52;;;2.00;99.90;;;;;;5031109;28;20033;-81
2023/01/24 08:07:40;;;;;;;24.15;14.90;;;2.00;99.90;;;;;;5028135;28;20090;-82
2023/01/24 08:10:07;;;;;;;21.40;13.35;;;2.00;99.90;;;;;;5046395;28;20025;-77
2023/01/24 08:12:33;;;;;;;18.65;11.43;;;2.00;99.90;;;;;;5039971;28;20465;-79
2023/01/24 08:14:58;;;;;;;19.52;12.20;;;2.00;99.90;;;;;;5037257;28;20083;-78
2023/01/24 08:17:24;;;;;;;22.95;14.00;;;2.00;99.90;;;;;;5028248;28;20064;-78
2023/01/24 08:19:50;;;;;;;19.23;13.68;;;2.00;99.90;;;;;;5023450;28;20098;-77
2023/01/24 08:22:15;;;;;;;20.60;11.82;;;2.00;99.90;;;;;;5038687;28;20040;-78
2023/01/24 08:24:41;;;;;;;18.75;11.85;;;2.00;99.90;;;;;;5029888;28;20032;-78
2023/01/24 08:27:07;;;;;;;18.63;11.38;;;2.00;99.90;;;;;;5033600;28;20043;-77
2023/01/24 08:29:32;;;;;;;17.05;11.25;;;2.00;99.90;;;;;;5035694;28;20139;-77
2023/01/24 08:31:58;;;;;;;20.30;12.27;;;2.00;99.90;;;;;;5036054;28;20022;-77
2023/01/24 08:34:25;;;;;;;19.67;12.43;;;2.10;99.90;;;;;;5029443;28;20036;-78
2023/01/24 08:36:51;;;;;;;21.65;13.13;;;2.00;99.90;;;;;;5039704;28;20021;-77
2023/01/24 08:39:16;;;;;;;20.35;12.52;;;2.00;99.90;;;;;;5035695;28;20016;-78
2023/01/24 08:41:46;;;;;;;23.00;14.15;;;2.00;99.90;;;;;;5042584;28;20030;-78
2023/01/24 08:44:15;;;;;;;17.73;12.17;;;2.00;99.90;;;;;;5022934;28;20041;-79
2023/01/24 08:46:41;;;;;;;17.70;10.43;;;2.00;99.90;;;;;;5039840;28;20087;-78
2023/01/24 08:49:09;;;;;;;15.68;9.88;;;2.00;99.90;;;;;;5028749;28;20123;-78
2023/01/24 08:51:34;;;;;;;14.63;9.10;;;2.10;99.90;;;;;;5020587;28;20052;-78
2023/01/24 08:54:00;;;;;;;18.27;11.73;;;2.10;99.90;;;;;;5043910;28;20088;-77
2023/01/24 08:56:26;;;;;;;18.15;11.98;;;2.10;99.90;;;;;;5041333;28;20091;-77
2023/01/24 08:58:52;;;;;;;17.92;11.43;;;2.10;99.90;;;;;;5038728;28;20187;-78
2023/01/24 09:01:17;;;;;;;17.75;11.63;;;2.10;99.90;;;;;;5046449;28;20533;-77
2023/01/24 09:03:43;;;;;;;15.95;10.13;;;2.10;99.90;;;;;;5045948;28;20112;-78
2023/01/24 09:06:09;;;;;;;15.13;8.95;;;2.10;99.90;;;;;;5044136;28;20156;-78
2023/01/24 09:08:35;;;;;;;17.15;10.23;;;2.10;99.90;;;;;;5022726;28;20549;-78
2023/01/24 09:11:01;;;;;;;13.27;8.15;;;2.10;99.90;;;;;;5025495;28;20037;-78
2023/01/24 09:13:27;;;;;;;13.95;8.68;;;2.10;99.90;;;;;;5044986;28;20496;-77
2023/01/24 09:15:53;;;;;;;16.88;10.43;;;2.10;99.90;;;;;;5044656;28;20474;-77
2023/01/24 09:18:19;;;;;;;16.23;10.07;;;2.00;99.90;;;;;;5021571;28;20129;-78
2023/01/24 09:20:44;;;;;;;14.32;9.20;;;2.10;99.90;;;;;;5044567;28;20035;-78
2023/01/24 09:23:12;;;;;;;14.93;9.77;;;2.10;99.90;;;;;;5024744;28;20076;-77
2023/01/24 09:25:38;;;;;;;15.65;8.85;;;2.10;99.90;;;;;;5035149;28;20021;-78
2023/01/24 09:28:05;;;;;;;14.30;8.88;;;2.10;99.90;;;;;;5041827;28;20123;-78
2023/01/24 09:30:31;;;;;;;14.05;8.90;;;2.10;99.90;;;;;;5044471;28;20030;-78
2023/01/24 09:32:56;;;;;;;13.18;8.50;;;2.10;99.90;;;;;;5033490;28;20036;-78
2023/01/24 09:35:22;;;;;;;13.52;8.85;;;2.20;99.90;;;;;;5040722;28;20030;-77
2023/01/24 09:37:50;;;;;;;12.15;7.72;;;2.20;99.90;;;;;;5034803;28;20032;-78
2023/01/24 09:40:23;;;;;;;13.73;9.38;;;2.10;99.90;;;;;;5017624;28;20044;-78
2023/01/24 09:43:06;;;;;;;13.00;8.32;;;2.20;99.90;;;;;;5037959;28;20073;-78
2023/01/24 09:45:49;;;;;;;12.68;7.93;;;2.20;99.90;;;;;;5039372;28;20078;-77
2023/01/24 09:48:18;;;;;;;11.07;7.25;;;2.20;99.90;;;;;;5038955;28;20049;-80
2023/01/24 09:50:57;;;;;;;12.23;7.65;;;2.20;99.90;;;;;;5034663;28;20029;-78
2023/01/24 09:53:36;;;;;;;12.82;8.20;;;2.20;99.90;;;;;;5045354;28;20029;-78
2023/01/24 09:56:04;;;;;;;11.00;6.65;;;2.20;99.90;;;;;;5035910;28;20308;-78
2023/01/24 09:58:43;;;;;;;10.48;6.55;;;2.20;99.90;;;;;;5028560;28;20037;-78
2023/01/24 10:01:15;;;;;;;9.65;6.45;;;2.30;99.90;;;;;;5035054;28;20033;-78
2023/01/24 10:03:42;;;;;;;10.98;6.50;;;2.30;99.90;;;;;;5035023;28;20033;-78
2023/01/24 10:06:14;;;;;;;11.10;7.72;;;2.30;99.90;;;;;;5041063;28;20025;-78
2023/01/24 10:09:09;;;;;;;14.73;9.38;;;2.30;99.90;;;;;;5035061;28;20061;-78
2023/01/24 10:11:59;;;;;;;15.43;9.05;;;2.20;99.90;;;;;;5033336;28;20084;-77
2023/01/24 10:14:43;;;;;;;10.82;7.40;;;2.20;99.90;;;;;;5026017;28;20047;-78
2023/01/24 10:17:15;;;;;;;13.27;8.35;;;2.30;99.90;;;;;;5044135;28;20041;-78
2023/01/24 10:20:13;;;;;;;12.50;8.77;;;2.30;99.90;;;;;;5036922;28;20032;-78
2023/01/24 10:23:26;;;;;;;11.20;7.55;;;2.30;99.90;;;;;;5021261;28;20563;-78
2023/01/24 10:25:57;;;;;;;7.97;5.13;;;2.30;99.90;;;;;;5031895;28;20041;-77
2023/01/24 10:28:33;;;;;;;10.85;6.10;;;2.40;99.90;;;;;;5040170;28;20040;-78
2023/01/24 10:31:24;;;;;;;9.32;6.13;;;2.40;99.90;;;;;;5039536;28;20058;-78
2023/01/24 10:33:55;;;;;;;11.45;6.68;;;2.40;99.90;;;;;;5032859;28;20448;-78
2023/01/24 10:36:59;;;;;;;9.23;5.97;;;2.40;99.90;;;;;;5022059;28;20038;-78
2023/01/24 10:39:27;;;;;;;8.63;5.03;;;2.40;99.90;;;;;;5048452;28;20120;-78
2023/01/24 10:41:53;;;;;;;11.45;6.47;;;2.40;99.90;;;;;;5031517;28;20493;-78
2023/01/24 10:44:30;;;;;;;11.75;8.07;;;2.40;99.90;;;;;;5028856;28;20429;-78
2023/01/24 10:47:22;;;;;;;9.65;6.13;;;2.40;99.90;;;;;;5042004;28;20033;-77
2023/01/24 10:50:03;;;;;;;10.98;6.50;;;2.40;99.90;;;;;;5039898;28;20045;-78
2023/01/24 10:52:29;;;;;;;9.32;6.20;;;2.40;99.90;;;;;;5042496;28;20655;-78
2023/01/24 10:54:57;;;;;;;8.48;5.55;;;2.50;99.90;;;;;;5028804;28;20256;-78
2023/01/24 10:57:30;;;;;;;11.68;6.15;;;2.50;99.90;;;;;;5028136;28;20029;-78
2023/01/24 11:00:00;;;;;;;11.30;7.15;;;2.40;99.90;;;;;;5042150;28;20021;-78
2023/01/24 11:02:26;;;;;;;10.30;6.90;;;2.40;99.90;;;;;;5047121;28;20035;-78
2023/01/24 11:05:06;;;;;;;10.50;6.57;;;2.40;99.90;;;;;;5043411;28;20033;-78
2023/01/24 11:07:38;;;;;;;11.00;6.38;;;2.50;99.90;;;;;;5038267;28;20108;-78
2023/01/24 11:10:30;;;;;;;12.95;8.90;;;2.50;99.90;;;;;;5035525;28;20029;-78
2023/01/24 11:13:01;;;;;;;10.10;7.22;;;2.40;99.90;;;;;;5021819;28;20466;-78
2023/01/24 11:15:35;;;;;;;9.10;5.85;;;2.50;99.90;;;;;;5056101;28;20362;-78
2023/01/24 11:18:23;;;;;;;8.13;5.15;;;2.50;99.90;;;;;;5036614;28;20036;-78
2023/01/24 11:21:08;;;;;;;8.15;5.72;;;2.50;99.90;;;;;;5046642;28;20044;-78
2023/01/24 11:23:35;;;;;;;10.30;6.25;;;2.50;99.90;;;;;;5056567;28;20490;-78
2023/01/24 11:26:07;;;;;;;9.18;6.15;;;2.50;99.90;;;;;;5038113;28;20028;-78
2023/01/24 11:28:37;;;;;;;11.00;6.65;;;2.50;99.90;;;;;;5037955;28;20059;-77
2023/01/24 11:31:14;;;;;;;;;;;2.50;99.90;;;;;;5024080;28;20390;-78
2023/01/24 11:33:58;;;;;;;9.43;5.40;;;2.50;99.90;;;;;;5041918;28;20048;-78
2023/01/24 11:36:41;;;;;;;8.32;5.13;;;2.50;99.90;;;;;;5039483;28;20151;-78
2023/01/24 11:39:25;;;;;;;8.10;5.97;;;2.50;99.90;;;;;;5048276;28;20109;-78
2023/01/24 11:42:29;;;;;;;7.93;4.70;;;2.50;99.90;;;;;;5040527;28;20036;-78
2023/01/24 11:45:03;;;;;;;8.63;5.40;;;2.50;99.90;;;;;;5040124;28;20047;-78
2023/01/24 11:47:38;;;;;;;7.93;4.82;;;2.50;99.90;;;;;;5024319;28;20037;-78
2023/01/24 11:50:34;;;;;;;7.93;4.57;;;2.60;99.90;;;;;;5017901;28;20049;-77
2023/01/24 11:53:24;;;;;;;6.75;4.53;;;2.60;99.90;;;;;;5003836;28;20034;-78
2023/01/24 11:56:07;;;;;;;6.80;4.60;;;2.50;99.90;;;;;;5001784;28;20057;-78
2023/01/24 11:58:47;;;;;;;6.15;4.32;;;2.50;99.90;;;;;;4992709;28;20037;-78
2023/01/24 12:01:43;;;;;;;7.95;5.32;;;2.60;99.90;;;;;;5009989;28;20026;-78
2023/01/24 12:04:11;;;;;;;6.95;4.55;;;2.60;99.90;;;;;;5018551;28;20044;-77
2023/01/24 12:07:04;;;;;;;5.97;4.03;;;2.70;99.90;;;;;;5015976;28;20026;-78
2023/01/24 12:09:42;;;;;;;7.30;4.72;;;2.70;99.90;;;;;;5006491;28;20063;-78
2023/01/24 12:12:27;;;;;;;7.47;5.50;;;2.60;99.90;;;;;;5018940;28;20110;-77
2023/01/24 12:15:19;;;;;;;8.80;5.28;;;2.60;99.90;;;;;;5011786;28;20052;-78
2023/01/24 12:17:52;;;;;;;7.82;4.53;;;2.70;99.90;;;;;;4992769;28;20026;-78
2023/01/24 12:20:40;;;;;;;8.82;5.05;;;2.60;99.90;;;;;;4999879;28;20529;-78
2023/01/24 12:23:35;;;;;;;7.57;4.18;;;2.70;99.90;;;;;;5020295;28;20052;-78
2023/01/24 12:26:42;;;;;;;6.45;4.60;;;2.70;99.90;;;;;;5015745;28;20040;-78
2023/01/24 12:29:18;;;;;;;5.55;3.47;;;2.70;99.90;;;;;;5000797;28;20458;-78
2023/01/24 12:32:21;;;;;;;5.18;3.45;;;2.80;99.90;;;;;;4983429;28;20021;-78
2023/01/24 12:35:06;;;;;;;6.82;4.25;;;2.90;99.90;;;;;;4998813;28;20022;-78
2023/01/24 12:37:46;;;;;;;7.03;4.38;;;2.80;99.90;;;;;;4990858;28;20059;-78
2023/01/24 12:40:11;;;;;;;7.57;4.93;;;2.80;99.90;;;;;;5002361;28;20041;-78
2023/01/24 12:43:00;;;;;;;6.18;3.97;;;2.80;99.90;;;;;;5014755;28;20400;-78
2023/01/24 12:45:34;;;;;;;7.28;3.83;;;2.70;99.90;;;;;;5015365;28;20022;-78
2023/01/24 12:48:05;;;;;;;6.55;3.05;;;2.70;99.90;;;;;;5001154;28;20049;-78
2023/01/24 12:50:43;;;;;;;7.35;3.97;;;2.70;99.90;;;;;;4999967;28;20080;-78
2023/01/24 12:53:27;;;;;;;6.00;3.33;;;2.70;99.90;;;;;;5017081;28;20109;-78
2023/01/24 12:56:18;;;;;;;3.60;2.08;;;2.70;99.90;;;;;;4991836;28;20429;-78
2023/01/24 12:58:46;;;;;;;5.63;2.60;;;2.80;99.90;;;;;;4998203;28;20030;-78
2023/01/24 13:01:26;;;;;;;5.15;2.92;;;2.80;99.90;;;;;;5019235;28;20025;-78
2023/01/24 13:03:59;;;;;;;6.43;3.63;;;2.80;99.90;;;;;;5016167;28;20026;-78
2023/01/24 13:07:00;;;;;;;5.00;3.22;;;2.80;99.90;;;;;;5019834;28;20018;-78
2023/01/24 13:09:57;;;;;;;6.07;3.38;;;2.80;99.90;;;;;;5000242;28;20077;-78
2023/01/24 13:12:24;;;;;;;6.82;3.80;;;2.80;99.90;;;;;;4979690;28;20040;-78
2023/01/24 13:15:01;;;;;;;5.72;3.60;;;2.70;99.90;;;;;;5003836;28;20033;-78
2023/01/24 13:17:55;;;;;;;6.35;3.67;;;2.70;99.90;;;;;;5001853;28;20084;-78
2023/01/24 13:20:48;;;;;;;6.43;3.67;;;2.70;99.90;;;;;;4990959;28;20395;-78
2023/01/24 13:23:32;;;;;;;4.90;2.97;;;2.70;99.90;;;;;;4988791;28;20037;-78
2023/01/24 13:26:41;;;;;;;5.43;3.45;;;2.70;99.90;;;;;;5000189;28;20463;-78
2023/01/24 13:29:38;;;;;;;6.30;3.10;;;2.70;99.90;;;;;;5000130;28;20677;-78
2023/01/24 13:32:06;;;;;;;6.65;3.65;;;2.70;99.90;;;;;;5016591;28;20061;-78
2023/01/24 13:34:35;;;;;;;7.57;4.10;;;2.60;99.90;;;;;;5006098;28;20036;-78
2023/01/24 13:37:02;;;;;;;5.18;3.58;;;2.60;99.90;;;;;;4992872;28;20030;-78
2023/01/24 13:39:39;;;;;;;7.80;4.40;;;2.60;99.90;;;;;;4996503;28;20046;-78
2023/01/24 13:42:17;;;;;;;6.85;4.00;;;2.70;99.90;;;;;;5001448;28;20044;-78
2023/01/24 13:44:43;;;;;;;6.63;3.67;;;2.60;99.90;;;;;;5003712;28;20045;-79
2023/01/24 13:47:08;;;;;;;5.38;3.20;;;2.60;99.90;;;;;;5016322;28;20038;-78
2023/01/24 13:49:38;;;;;;;6.57;3.88;;;2.60;99.90;;;;;;5008692;28;20058;-78